createdAt,value
2016-11-16T00:00:29.391Z,1007.35
2016-11-16T00:01:39.657Z,1007.33
2016-11-16T00:02:49.925Z,1007.33
2016-11-16T00:03:59.897Z,1007.28
2016-11-16T00:05:09.862Z,1007.26
2016-11-16T00:06:20.148Z,1007.31
2016-11-16T00:07:30.115Z,1007.25
2016-11-16T00:08:40.439Z,1007.19
2016-11-16T00:09:50.711Z,1007.28
2016-11-16T00:11:00.682Z,1007.27
2016-11-16T00:12:10.967Z,1007.32
2016-11-16T00:13:21.244Z,1007.31
2016-11-16T00:14:30.916Z,1007.3
2016-11-16T00:15:40.898Z,1007.29
2016-11-16T00:16:51.164Z,1007.31
2016-11-16T00:18:00.833Z,1007.31
2016-11-16T00:19:11.097Z,1007.32
2016-11-16T00:20:21.376Z,1007.28
2016-11-16T00:21:31.647Z,1007.31
2016-11-16T00:22:41.936Z,1007.3
2016-11-16T00:23:52.206Z,1007.29
2016-11-16T00:25:02.521Z,1007.23
2016-11-16T00:26:12.498Z,1007.24
2016-11-16T00:27:22.476Z,1007.24
2016-11-16T00:28:32.762Z,1007.28
2016-11-16T00:29:42.420Z,1007.3
2016-11-16T00:30:52.697Z,1007.28
2016-11-16T00:32:02.968Z,1007.25
2016-11-16T00:33:13.247Z,1007.25
2016-11-16T00:34:23.217Z,1007.26
2016-11-16T00:35:33.499Z,1007.26
2016-11-16T00:36:43.464Z,1007.25
2016-11-16T00:37:53.436Z,1007.25
2016-11-16T00:39:03.712Z,1007.24
2016-11-16T00:40:13.074Z,1007.26
2016-11-16T00:41:22.736Z,1007.25
2016-11-16T00:42:32.708Z,1007.21
2016-11-16T00:43:42.676Z,1007.26
2016-11-16T00:44:52.337Z,1007.27
2016-11-16T00:46:02.302Z,1007.2
2016-11-16T00:47:12.290Z,1007.23
2016-11-16T00:48:21.971Z,1007.25
2016-11-16T00:49:32.287Z,1007.2
2016-11-16T00:50:42.570Z,1007.23
2016-11-16T00:51:52.541Z,1007.27
2016-11-16T00:53:02.519Z,1007.32
2016-11-16T00:54:12.782Z,1007.26
2016-11-16T00:55:22.462Z,1007.22
2016-11-16T00:56:32.748Z,1007.22
2016-11-16T00:57:42.727Z,1007.17
2016-11-16T00:58:52.700Z,1007.2
2016-11-16T01:00:03.010Z,1007.17
2016-11-16T01:01:12.977Z,1007.15
2016-11-16T01:02:22.019Z,1007.08
2016-11-16T01:03:31.979Z,1007.07
2016-11-16T01:04:41.932Z,1007.11
2016-11-16T01:05:51.904Z,1007.01
2016-11-16T01:07:01.880Z,1007.04
2016-11-16T01:08:12.156Z,1007.05
2016-11-16T01:09:22.438Z,1007.03
2016-11-16T01:10:32.398Z,1007.02
2016-11-16T01:11:42.671Z,1006.97
2016-11-16T01:12:52.945Z,1006.99
2016-11-16T01:14:03.216Z,1006.98
2016-11-16T01:15:12.887Z,1006.99
2016-11-16T01:16:23.167Z,1006.94
2016-11-16T01:17:33.133Z,1006.94
2016-11-16T01:18:43.411Z,1006.92
2016-11-16T01:19:53.370Z,1006.9
2016-11-16T01:21:03.030Z,1006.87
2016-11-16T01:22:12.989Z,1006.85
2016-11-16T01:23:22.958Z,1006.9
2016-11-16T01:24:32.914Z,1006.86
2016-11-16T01:25:42.872Z,1006.83
2016-11-16T01:26:53.174Z,1006.86
2016-11-16T01:28:03.466Z,1006.87
2016-11-16T01:29:13.762Z,1006.83
2016-11-16T01:30:24.047Z,1006.89
2016-11-16T01:31:34.010Z,1006.84
2016-11-16T01:32:44.011Z,1006.82
2016-11-16T01:33:53.993Z,1006.83
2016-11-16T01:35:04.258Z,1006.85
2016-11-16T01:36:14.528Z,1006.82
2016-11-16T01:37:24.801Z,1006.82
2016-11-16T01:38:35.071Z,1006.84
2016-11-16T01:39:45.347Z,1006.85
2016-11-16T01:40:55.341Z,1006.87
2016-11-16T01:42:05.302Z,1006.85
2016-11-16T01:43:15.587Z,1006.88
2016-11-16T01:44:25.853Z,1006.85
2016-11-16T01:45:36.130Z,1006.82
2016-11-16T01:46:46.106Z,1006.81
2016-11-16T01:47:56.375Z,1006.8
2016-11-16T01:49:06.683Z,1006.77
2016-11-16T01:50:16.958Z,1006.77
2016-11-16T01:51:26.920Z,1006.81
2016-11-16T01:52:37.191Z,1006.82
2016-11-16T01:53:47.167Z,1006.77
2016-11-16T01:54:56.835Z,1006.77
2016-11-16T01:56:06.806Z,1006.79
2016-11-16T01:57:16.770Z,1006.78
2016-11-16T01:58:27.050Z,1006.81
2016-11-16T01:59:37.026Z,1006.82
2016-11-16T02:00:46.679Z,1006.79
2016-11-16T02:01:56.637Z,1006.74
2016-11-16T02:03:06.954Z,1006.71
2016-11-16T02:04:16.619Z,1006.7
2016-11-16T02:05:26.580Z,1006.66
2016-11-16T02:06:36.547Z,1006.64
2016-11-16T02:07:46.833Z,1006.63
2016-11-16T02:08:57.105Z,1006.62
2016-11-16T02:10:06.768Z,1006.66
2016-11-16T02:11:16.118Z,1006.6
2016-11-16T02:12:26.380Z,1006.55
2016-11-16T02:13:36.031Z,1006.58
2016-11-16T02:14:46.323Z,1006.61
2016-11-16T02:15:56.291Z,1006.57
2016-11-16T02:17:06.578Z,1006.59
2016-11-16T02:18:16.550Z,1006.62
2016-11-16T02:19:26.520Z,1006.57
2016-11-16T02:20:36.486Z,1006.54
2016-11-16T02:21:45.829Z,1006.54
2016-11-16T02:22:56.090Z,1006.53
2016-11-16T02:24:05.757Z,1006.58
2016-11-16T02:25:15.730Z,1006.53
2016-11-16T02:26:25.722Z,1006.59
2016-11-16T02:27:35.988Z,1006.58
2016-11-16T02:28:46.264Z,1006.6
2016-11-16T02:29:56.541Z,1006.54
2016-11-16T02:31:06.818Z,1006.54
2016-11-16T02:32:17.088Z,1006.48
2016-11-16T02:33:27.385Z,1006.5
2016-11-16T02:34:37.672Z,1006.4
2016-11-16T02:35:47.663Z,1006.45
2016-11-16T02:36:57.929Z,1006.45
2016-11-16T02:38:08.197Z,1006.45
2016-11-16T02:39:18.472Z,1006.46
2016-11-16T02:40:28.444Z,1006.48
2016-11-16T02:41:38.712Z,1006.42
2016-11-16T02:42:48.987Z,1006.43
2016-11-16T02:43:58.327Z,1006.35
2016-11-16T02:45:07.680Z,1006.32
2016-11-16T02:46:17.962Z,1006.29
2016-11-16T02:47:27.939Z,1006.2
2016-11-16T02:48:38.206Z,1006.15
2016-11-16T02:49:47.866Z,1006.12
2016-11-16T02:50:58.145Z,1006.11
2016-11-16T02:52:08.125Z,1006.1
2016-11-16T02:53:18.396Z,1006.05
2016-11-16T02:54:28.680Z,1006.1
2016-11-16T02:55:37.719Z,1006.1
2016-11-16T02:56:48.001Z,1006.01
2016-11-16T02:57:57.974Z,1006.02
2016-11-16T02:59:07.939Z,1006.03
2016-11-16T03:00:18.192Z,1006.01
2016-11-16T03:32:26.298Z,1005.84
2016-11-16T03:33:36.584Z,1005.86
2016-11-16T03:34:46.861Z,1005.88
2016-11-16T03:35:57.123Z,1005.83
2016-11-16T03:37:07.385Z,1005.86
2016-11-16T03:38:17.686Z,1005.88
2016-11-16T03:39:27.963Z,1005.89
2016-11-16T03:40:38.227Z,1005.89
2016-11-16T03:41:48.496Z,1005.87
2016-11-16T03:42:58.762Z,1005.86
2016-11-16T03:44:09.029Z,1005.83
2016-11-16T03:45:19.315Z,1005.82
2016-11-16T03:46:29.588Z,1005.83
2016-11-16T03:47:39.551Z,1005.8
2016-11-16T03:48:49.530Z,1005.78
2016-11-16T03:49:59.499Z,1005.76
2016-11-16T03:51:09.778Z,1005.81
2016-11-16T03:52:20.058Z,1005.76
2016-11-16T03:53:30.323Z,1005.74
2016-11-16T03:54:40.281Z,1005.71
2016-11-16T03:55:50.291Z,1005.72
2016-11-16T03:57:00.258Z,1005.69
2016-11-16T03:58:10.219Z,1005.64
2016-11-16T03:59:20.492Z,1005.64
2016-11-16T04:00:30.463Z,1005.68
2016-11-16T04:01:40.430Z,1005.6
2016-11-16T04:02:50.411Z,1005.63
2016-11-16T04:04:00.380Z,1005.62
2016-11-16T04:05:10.679Z,1005.61
2016-11-16T04:06:20.647Z,1005.61
2016-11-16T04:07:30.605Z,1005.62
2016-11-16T04:08:40.561Z,1005.53
2016-11-16T04:09:50.522Z,1005.55
2016-11-16T04:11:00.797Z,1005.53
2016-11-16T04:12:11.089Z,1005.49
2016-11-16T04:13:21.357Z,1005.52
2016-11-16T04:14:31.633Z,1005.47
2016-11-16T04:15:41.599Z,1005.47
2016-11-16T04:16:51.886Z,1005.46
2016-11-16T04:18:01.849Z,1005.46
2016-11-16T04:19:12.116Z,1005.46
2016-11-16T04:20:22.076Z,1005.46
2016-11-16T04:21:32.354Z,1005.38
2016-11-16T04:22:42.327Z,1005.41
2016-11-16T04:23:52.634Z,1005.41
2016-11-16T04:25:02.932Z,1005.39
2016-11-16T04:26:13.197Z,1005.38
2016-11-16T04:27:23.469Z,1005.39
2016-11-16T04:28:33.741Z,1005.41
2016-11-16T04:29:44.033Z,1005.4
2016-11-16T04:30:54.312Z,1005.44
2016-11-16T04:32:04.595Z,1005.45
2016-11-16T04:33:14.901Z,1005.44
2016-11-16T04:34:24.860Z,1005.5
2016-11-16T04:35:35.131Z,1005.44
2016-11-16T04:36:45.402Z,1005.39
2016-11-16T04:37:55.363Z,1005.46
2016-11-16T04:39:05.335Z,1005.49
2016-11-16T04:40:15.606Z,1005.45
2016-11-16T04:41:25.579Z,1005.43
2016-11-16T04:42:35.550Z,1005.45
2016-11-16T04:43:45.817Z,1005.43
2016-11-16T04:44:56.084Z,1005.44
2016-11-16T04:46:06.365Z,1005.43
2016-11-16T04:47:16.033Z,1005.41
2016-11-16T04:48:26.310Z,1005.35
2016-11-16T04:49:36.582Z,1005.34
2016-11-16T04:50:46.877Z,1005.32
2016-11-16T04:51:57.165Z,1005.27
2016-11-16T04:53:07.149Z,1005.27
2016-11-16T04:54:17.417Z,1005.24
2016-11-16T04:55:27.394Z,1005.31
2016-11-16T04:56:37.361Z,1005.23
2016-11-16T04:57:47.663Z,1005.28
2016-11-16T04:58:57.972Z,1005.29
2016-11-16T05:00:08.251Z,1005.24
2016-11-16T05:01:18.223Z,1005.22
2016-11-16T05:02:27.894Z,1005.21
2016-11-16T05:03:38.177Z,1005.19
2016-11-16T05:04:48.463Z,1005.2
2016-11-16T05:05:58.465Z,1005.17
2016-11-16T05:07:08.741Z,1005.15
2016-11-16T05:08:18.705Z,1005.12
2016-11-16T05:09:28.989Z,1005.16
2016-11-16T05:10:38.963Z,1005.16
2016-11-16T05:11:49.240Z,1005.06
2016-11-16T05:12:59.514Z,1005.04
2016-11-16T05:14:09.482Z,1005.05
2016-11-16T05:15:19.752Z,1005.06
2016-11-16T05:16:30.047Z,1004.97
2016-11-16T05:17:40.338Z,1004.97
2016-11-16T05:18:50.008Z,1004.99
2016-11-16T05:19:59.981Z,1005
2016-11-16T05:21:09.334Z,1004.97
2016-11-16T05:22:19.610Z,1005.01
2016-11-16T05:23:29.900Z,1005.01
2016-11-16T05:24:39.872Z,1004.98
2016-11-16T05:25:50.149Z,1005
2016-11-16T05:27:00.427Z,1004.98
2016-11-16T05:28:10.078Z,1004.99
2016-11-16T05:29:20.031Z,1004.99
2016-11-16T05:30:30.322Z,1004.99
2016-11-16T05:31:40.312Z,1005.02
2016-11-16T05:32:50.596Z,1005.06
2016-11-16T05:34:00.558Z,1005.11
2016-11-16T05:35:10.830Z,1005.03
2016-11-16T05:36:21.111Z,1005.06
2016-11-16T05:37:31.413Z,1005.11
2016-11-16T05:38:41.376Z,1005.1
2016-11-16T05:39:51.675Z,1005.06
2016-11-16T05:41:01.957Z,1005.11
2016-11-16T05:42:11.925Z,1005.05
2016-11-16T05:43:21.880Z,1005.09
2016-11-16T05:44:31.852Z,1005.03
2016-11-16T05:45:42.139Z,1005.08
2016-11-16T05:46:52.406Z,1005.07
2016-11-16T05:48:02.369Z,1005.03
2016-11-16T05:49:12.649Z,1005.06
2016-11-16T05:50:22.937Z,1005.01
2016-11-16T05:51:33.208Z,1005.07
2016-11-16T05:52:43.504Z,1005.02
2016-11-16T05:53:53.783Z,1005.02
2016-11-16T05:55:04.063Z,1004.98
2016-11-16T05:56:14.357Z,1004.98
2016-11-16T05:57:24.327Z,1005.02
2016-11-16T05:58:34.603Z,1005.01
2016-11-16T05:59:44.605Z,1005.05
2016-11-16T06:00:54.882Z,1005.04
2016-11-16T06:02:04.865Z,1005.03
2016-11-16T06:03:15.147Z,1004.99
2016-11-16T06:04:25.452Z,1005.01
2016-11-16T06:05:35.744Z,1005.06
2016-11-16T06:06:46.034Z,1005.04
2016-11-16T06:07:56.308Z,1005.02
2016-11-16T06:09:06.591Z,1005.02
2016-11-16T06:10:16.867Z,1005
2016-11-16T06:11:27.133Z,1005.02
2016-11-16T06:12:37.410Z,1004.99
2016-11-16T06:13:47.068Z,1004.96
2016-11-16T06:14:57.359Z,1004.95
2016-11-16T06:16:07.658Z,1005.02
2016-11-16T06:17:17.972Z,1005.06
2016-11-16T06:18:27.944Z,1005.09
2016-11-16T06:19:37.935Z,1005.01
2016-11-16T06:20:48.214Z,1005
2016-11-16T06:21:58.479Z,1004.99
2016-11-16T06:23:08.754Z,1005.01
2016-11-16T06:24:19.038Z,1004.96
2016-11-16T06:25:29.020Z,1004.96
2016-11-16T06:26:39.296Z,1004.93
2016-11-16T06:27:49.574Z,1004.99
2016-11-16T06:28:59.536Z,1004.97
2016-11-16T06:30:09.817Z,1004.96
2016-11-16T06:31:20.093Z,1005.06
2016-11-16T06:32:30.111Z,1005.05
2016-11-16T06:33:40.117Z,1005.02
2016-11-16T06:34:50.120Z,1005.07
2016-11-16T06:36:00.087Z,1005.06
2016-11-16T06:37:10.068Z,1005.03
2016-11-16T06:38:19.730Z,1005.03
2016-11-16T06:39:30.020Z,1005.02
2016-11-16T06:40:39.700Z,1005.07
2016-11-16T06:41:49.666Z,1005.07
2016-11-16T06:42:59.936Z,1005
2016-11-16T06:44:10.217Z,1004.99
2016-11-16T06:45:20.184Z,1005
2016-11-16T06:46:30.151Z,1004.99
2016-11-16T06:47:39.815Z,1004.99
2016-11-16T06:48:50.092Z,1005.03
2016-11-16T06:50:00.381Z,1005.07
2016-11-16T06:51:10.665Z,1005.06
2016-11-16T06:52:20.972Z,1005.06
2016-11-16T06:53:31.237Z,1005.04
2016-11-16T06:54:40.899Z,1005.1
2016-11-16T06:55:50.864Z,1005.09
2016-11-16T06:57:00.847Z,1005.12
2016-11-16T06:58:11.136Z,1005.11
2016-11-16T06:59:21.110Z,1005.06
2016-11-16T07:00:31.077Z,1005.08
2016-11-16T07:01:41.369Z,1005.07
2016-11-16T07:02:51.636Z,1005.07
2016-11-16T07:04:01.922Z,1005.07
2016-11-16T07:05:12.261Z,1005.04
2016-11-16T07:06:22.544Z,1005.05
2016-11-16T07:07:32.202Z,1005.06
2016-11-16T07:08:42.179Z,1005.05
2016-11-16T07:09:52.450Z,1005.08
2016-11-16T07:11:02.158Z,1005.09
2016-11-16T07:12:12.130Z,1005.08
2016-11-16T07:13:22.411Z,1005.1
2016-11-16T07:14:32.698Z,1005.08
2016-11-16T07:15:42.360Z,1005.14
2016-11-16T07:16:52.626Z,1005.12
2016-11-16T07:18:02.605Z,1005.15
2016-11-16T07:19:12.258Z,1005.11
2016-11-16T07:20:22.534Z,1005.15
2016-11-16T07:21:32.520Z,1005.11
2016-11-16T07:22:42.801Z,1005.06
2016-11-16T07:23:53.093Z,1005.07
2016-11-16T07:25:03.083Z,1005.09
2016-11-16T07:26:13.347Z,1005.13
2016-11-16T07:27:23.643Z,1005.15
2016-11-16T07:28:33.923Z,1005.12
2016-11-16T07:29:43.930Z,1005.09
2016-11-16T07:30:53.912Z,1005.12
2016-11-16T07:32:04.185Z,1005.1
2016-11-16T07:33:14.186Z,1005.05
2016-11-16T07:34:24.173Z,1005.04
2016-11-16T07:35:34.146Z,1004.99
2016-11-16T07:36:44.445Z,1004.99
2016-11-16T07:37:54.725Z,1005.01
2016-11-16T07:39:05.024Z,1005
2016-11-16T07:40:15.297Z,1005.01
2016-11-16T07:41:25.569Z,1004.98
2016-11-16T07:42:35.850Z,1005.02
2016-11-16T07:43:46.145Z,1005.02
2016-11-16T07:44:56.422Z,1004.97
2016-11-16T07:46:06.737Z,1004.95
2016-11-16T07:47:16.724Z,1004.95
2016-11-16T07:48:26.679Z,1004.9
2016-11-16T07:49:36.645Z,1004.93
2016-11-16T07:50:46.940Z,1004.87
2016-11-16T07:51:57.216Z,1004.9
2016-11-16T07:53:07.489Z,1004.84
2016-11-16T07:54:16.837Z,1004.85
2016-11-16T07:55:26.817Z,1004.8
2016-11-16T07:56:36.789Z,1004.79
2016-11-16T07:57:46.763Z,1004.78
2016-11-16T07:58:57.048Z,1004.76
2016-11-16T08:00:06.400Z,1004.76
2016-11-16T08:01:16.665Z,1004.74
2016-11-16T08:02:26.950Z,1004.77
2016-11-16T08:03:36.925Z,1004.76
2016-11-16T08:04:46.286Z,1004.73
2016-11-16T08:05:56.553Z,1004.7
2016-11-16T08:07:06.521Z,1004.68
2016-11-16T08:08:16.507Z,1004.68
2016-11-16T08:09:26.475Z,1004.69
2016-11-16T08:10:36.409Z,1004.66
2016-11-16T08:11:46.382Z,1004.63
2016-11-16T08:12:56.339Z,1004.62
2016-11-16T08:14:06.611Z,1004.63
2016-11-16T08:15:16.875Z,1004.57
2016-11-16T08:16:26.864Z,1004.59
2016-11-16T08:17:36.534Z,1004.6
2016-11-16T08:18:46.537Z,1004.57
2016-11-16T08:19:56.504Z,1004.58
2016-11-16T08:21:06.475Z,1004.57
2016-11-16T08:22:16.767Z,1004.57
2016-11-16T08:23:26.744Z,1004.55
2016-11-16T08:24:37.053Z,1004.57
2016-11-16T08:25:47.327Z,1004.63
2016-11-16T08:26:57.304Z,1004.71
2016-11-16T08:28:07.299Z,1004.69
2016-11-16T08:29:17.267Z,1004.71
2016-11-16T08:30:26.920Z,1004.69
2016-11-16T08:31:36.911Z,1004.65
2016-11-16T08:32:47.217Z,1004.66
2016-11-16T08:33:57.505Z,1004.64
2016-11-16T08:35:07.786Z,1004.59
2016-11-16T08:36:17.462Z,1004.59
2016-11-16T08:37:27.430Z,1004.62
2016-11-16T08:38:37.721Z,1004.61
2016-11-16T08:39:48.034Z,1004.6
2016-11-16T08:40:58.309Z,1004.64
2016-11-16T08:42:08.011Z,1004.61
2016-11-16T08:43:17.360Z,1004.6
2016-11-16T08:44:27.359Z,1004.64
2016-11-16T08:45:37.339Z,1004.65
2016-11-16T08:46:46.387Z,1004.62
2016-11-16T08:47:56.702Z,1004.65
2016-11-16T08:49:06.675Z,1004.6
2016-11-16T08:50:16.948Z,1004.63
2016-11-16T08:51:26.914Z,1004.61
2016-11-16T08:52:37.237Z,1004.63
2016-11-16T08:53:47.514Z,1004.64
2016-11-16T08:54:57.501Z,1004.65
2016-11-16T08:56:07.781Z,1004.62
2016-11-16T08:57:18.067Z,1004.65
2016-11-16T08:58:28.067Z,1004.67
2016-11-16T08:59:38.361Z,1004.67
2016-11-16T09:00:48.362Z,1004.67
2016-11-16T09:01:58.319Z,1004.65
2016-11-16T09:03:07.997Z,1004.68
2016-11-16T09:04:18.269Z,1004.72
2016-11-16T09:05:28.244Z,1004.67
2016-11-16T09:06:38.773Z,1004.66
2016-11-16T09:07:48.457Z,1004.67
2016-11-16T09:08:58.711Z,1004.62
2016-11-16T09:10:08.976Z,1004.64
2016-11-16T09:11:18.933Z,1004.67
2016-11-16T09:12:28.912Z,1004.68
2016-11-16T09:13:38.577Z,1004.67
2016-11-16T09:14:48.577Z,1004.68
2016-11-16T09:15:58.860Z,1004.67
2016-11-16T09:17:08.821Z,1004.7
2016-11-16T09:18:19.089Z,1004.74
2016-11-16T09:19:29.370Z,1004.75
2016-11-16T09:20:39.358Z,1004.76
2016-11-16T09:21:49.025Z,1004.76
2016-11-16T09:22:59.000Z,1004.79
2016-11-16T09:24:08.662Z,1004.84
2016-11-16T09:25:18.631Z,1004.81
2016-11-16T09:26:28.641Z,1004.77
2016-11-16T09:27:38.943Z,1004.71
2016-11-16T09:28:48.634Z,1004.74
2016-11-16T09:29:58.305Z,1004.68
2016-11-16T09:31:08.641Z,1004.67
2016-11-16T09:32:18.920Z,1004.68
2016-11-16T09:33:28.926Z,1004.69
2016-11-16T09:34:38.889Z,1004.7
2016-11-16T09:35:48.868Z,1004.72
2016-11-16T09:36:58.820Z,1004.7
2016-11-16T09:38:08.487Z,1004.7
2016-11-16T09:39:19.028Z,1004.72
2016-11-16T09:40:29.030Z,1004.7
2016-11-16T09:41:39.314Z,1004.72
2016-11-16T09:42:48.983Z,1004.72
2016-11-16T09:43:58.655Z,1004.75
2016-11-16T09:45:08.312Z,1004.74
2016-11-16T09:46:18.595Z,1004.75
2016-11-16T09:47:28.560Z,1004.74
2016-11-16T09:48:38.573Z,1004.71
2016-11-16T09:49:48.559Z,1004.74
2016-11-16T09:50:58.231Z,1004.67
2016-11-16T09:52:08.509Z,1004.65
2016-11-16T09:53:18.488Z,1004.66
2016-11-16T09:54:28.461Z,1004.65
2016-11-16T09:55:38.435Z,1004.66
2016-11-16T09:56:48.709Z,1004.65
2016-11-16T09:57:58.685Z,1004.63
2016-11-16T09:59:08.678Z,1004.65
2016-11-16T10:00:18.990Z,1004.63
2016-11-16T10:01:28.663Z,1004.58
2016-11-16T10:02:38.643Z,1004.57
2016-11-16T10:03:48.678Z,1004.56
2016-11-16T10:04:58.650Z,1004.54
2016-11-16T10:06:08.631Z,1004.52
2016-11-16T10:07:18.615Z,1004.48
2016-11-16T10:08:28.280Z,1004.5
2016-11-16T10:09:38.563Z,1004.49
2016-11-16T10:10:48.855Z,1004.5
2016-11-16T10:11:59.141Z,1004.45
2016-11-16T10:13:09.412Z,1004.46
2016-11-16T10:14:19.374Z,1004.46
2016-11-16T10:15:29.650Z,1004.45
2016-11-16T10:16:39.798Z,1004.47
2016-11-16T10:17:49.775Z,1004.46
2016-11-16T10:19:00.050Z,1004.43
2016-11-16T10:20:10.022Z,1004.42
2016-11-16T10:21:20.020Z,1004.45
2016-11-16T10:22:30.011Z,1004.42
2016-11-16T10:23:40.282Z,1004.41
2016-11-16T10:24:50.576Z,1004.45
2016-11-16T10:26:00.859Z,1004.41
2016-11-16T10:27:11.134Z,1004.42
2016-11-16T10:28:21.111Z,1004.37
2016-11-16T10:29:31.397Z,1004.4
2016-11-16T10:30:41.055Z,1004.38
2016-11-16T10:31:51.043Z,1004.37
2016-11-16T10:33:01.386Z,1004.35
2016-11-16T10:34:11.344Z,1004.29
2016-11-16T10:35:21.326Z,1004.29
2016-11-16T10:36:31.593Z,1004.29
2016-11-16T10:37:41.266Z,1004.28
2016-11-16T10:38:51.544Z,1004.21
2016-11-16T10:40:01.860Z,1004.18
2016-11-16T10:41:11.840Z,1004.17
2016-11-16T10:42:21.863Z,1004.11
2016-11-16T10:43:31.887Z,1004.12
2016-11-16T10:44:42.208Z,1004.09
2016-11-16T10:45:52.518Z,1004.05
2016-11-16T10:47:02.522Z,1004.13
2016-11-16T10:48:12.811Z,1004.07
2016-11-16T10:49:23.099Z,1004.09
2016-11-16T10:50:33.408Z,1004.09
2016-11-16T10:51:43.738Z,1004.04
2016-11-16T10:52:53.765Z,1004.07
2016-11-16T10:54:04.068Z,1004.06
2016-11-16T10:55:14.366Z,1004.06
2016-11-16T10:56:24.384Z,1004.06
2016-11-16T10:57:34.699Z,1004.04
2016-11-16T10:58:44.683Z,1004.04
2016-11-16T10:59:54.645Z,1004.03
2016-11-16T11:01:04.637Z,1004.01
2016-11-16T11:02:14.924Z,1004.03
2016-11-16T11:03:25.201Z,1004.03
2016-11-16T11:04:35.171Z,1003.99
2016-11-16T11:05:45.152Z,1003.98
2016-11-16T11:06:55.208Z,1003.99
2016-11-16T11:08:05.521Z,1003.96
2016-11-16T11:09:15.815Z,1003.94
2016-11-16T11:10:26.103Z,1003.95
2016-11-16T11:11:36.387Z,1003.93
2016-11-16T11:12:46.675Z,1003.95
2016-11-16T11:13:56.995Z,1003.91
2016-11-16T11:15:06.690Z,1003.87
2016-11-16T11:16:16.964Z,1003.86
2016-11-16T11:17:26.616Z,1003.88
2016-11-16T11:18:35.967Z,1003.86
2016-11-16T11:19:46.246Z,1003.85
2016-11-16T11:20:55.292Z,1003.85
2016-11-16T11:22:05.630Z,1003.79
2016-11-16T11:23:15.632Z,1003.81
2016-11-16T11:24:25.321Z,1003.79
2016-11-16T11:25:35.642Z,1003.82
2016-11-16T11:26:45.305Z,1003.79
2016-11-16T11:27:55.276Z,1003.76
2016-11-16T11:29:05.240Z,1003.82
2016-11-16T11:30:15.231Z,1003.76
2016-11-16T11:31:25.282Z,1003.77
2016-11-16T11:32:34.955Z,1003.76
2016-11-16T11:33:44.615Z,1003.78
2016-11-16T11:34:54.885Z,1003.71
2016-11-16T11:36:04.873Z,1003.73
2016-11-16T11:37:15.142Z,1003.64
2016-11-16T11:38:25.421Z,1003.68
2016-11-16T11:39:35.385Z,1003.64
2016-11-16T11:40:45.366Z,1003.58
2016-11-16T11:41:55.325Z,1003.53
2016-11-16T11:43:05.598Z,1003.5
2016-11-16T11:44:15.579Z,1003.46
2016-11-16T11:45:25.902Z,1003.45
2016-11-16T11:46:36.185Z,1003.43
2016-11-16T11:47:46.155Z,1003.43
2016-11-16T11:48:56.462Z,1003.36
2016-11-16T11:50:06.749Z,1003.41
2016-11-16T11:51:16.736Z,1003.47
2016-11-16T11:52:27.008Z,1003.37
2016-11-16T11:53:37.276Z,1003.38
2016-11-16T11:54:47.547Z,1003.34
2016-11-16T11:55:57.524Z,1003.35
2016-11-16T11:57:07.795Z,1003.38
2016-11-16T11:58:18.077Z,1003.38
2016-11-16T11:59:27.737Z,1003.31
2016-11-16T12:00:37.719Z,1003.35
2016-11-16T12:01:47.688Z,1003.38
2016-11-16T12:02:57.652Z,1003.37
2016-11-16T12:04:07.614Z,1003.36
2016-11-16T12:05:17.810Z,1003.4
2016-11-16T12:06:28.371Z,1003.38
2016-11-16T12:07:38.349Z,1003.38
2016-11-16T12:08:48.642Z,1003.4
2016-11-16T12:09:58.947Z,1003.46
2016-11-16T12:11:08.927Z,1003.46
2016-11-16T12:12:18.906Z,1003.44
2016-11-16T12:13:28.893Z,1003.45
2016-11-16T12:14:38.870Z,1003.48
2016-11-16T12:15:48.836Z,1003.49
2016-11-16T12:16:58.497Z,1003.53
2016-11-16T12:18:08.160Z,1003.54
2016-11-16T12:19:18.127Z,1003.53
2016-11-16T12:20:28.473Z,1003.51
2016-11-16T12:21:38.775Z,1003.45
2016-11-16T12:22:48.468Z,1003.43
2016-11-16T12:23:58.754Z,1003.42
2016-11-16T12:25:08.420Z,1003.34
2016-11-16T12:26:18.402Z,1003.28
2016-11-16T12:27:28.688Z,1003.27
2016-11-16T12:28:38.744Z,1003.22
2016-11-16T12:29:49.041Z,1003.25
2016-11-16T12:30:59.317Z,1003.19
2016-11-16T12:32:09.286Z,1003.26
2016-11-16T12:33:19.594Z,1003.23
2016-11-16T12:34:29.283Z,1003.21
2016-11-16T12:35:38.940Z,1003.18
2016-11-16T12:36:48.911Z,1003.22
2016-11-16T12:37:58.573Z,1003.17
2016-11-16T12:39:08.530Z,1003.2
2016-11-16T12:40:18.512Z,1003.1
2016-11-16T12:41:28.182Z,1003.14
2016-11-16T12:42:37.839Z,1003.07
2016-11-16T12:43:47.903Z,1003.09
2016-11-16T12:44:58.189Z,1003.06
2016-11-16T12:46:08.208Z,1003.07
2016-11-16T12:47:18.180Z,1003.02
2016-11-16T12:48:28.468Z,1003.05
2016-11-16T12:49:38.764Z,1003.03
2016-11-16T12:50:48.426Z,1003.09
2016-11-16T12:51:58.693Z,1003.08
2016-11-16T12:53:08.664Z,1003.06
2016-11-16T12:54:18.648Z,1003.06
2016-11-16T12:55:28.940Z,1003.08
2016-11-16T12:56:38.916Z,1003.04
2016-11-16T12:57:49.193Z,1003.04
2016-11-16T12:58:59.495Z,1003.04
2016-11-16T13:00:09.450Z,1003.09
2016-11-16T13:01:19.721Z,1003.08
2016-11-16T13:02:29.712Z,1003.03
2016-11-16T13:03:39.374Z,1003.07
2016-11-16T13:04:49.661Z,1003.04
2016-11-16T13:06:00.012Z,1003.06
2016-11-16T13:07:10.303Z,1003.02
2016-11-16T13:08:20.296Z,1003.06
2016-11-16T13:09:29.978Z,1003.05
2016-11-16T13:10:40.271Z,1002.99
2016-11-16T13:11:49.622Z,1003.03
2016-11-16T13:12:59.967Z,1003.01
2016-11-16T13:14:09.955Z,1002.99
2016-11-16T13:15:20.261Z,1002.93
2016-11-16T13:16:30.244Z,1002.91
2016-11-16T13:17:40.211Z,1002.89
2016-11-16T13:18:50.537Z,1002.88
2016-11-16T13:20:00.785Z,1002.85
2016-11-16T13:21:11.079Z,1002.78
2016-11-16T13:22:21.362Z,1002.73
2016-11-16T13:23:31.027Z,1002.69
2016-11-16T13:24:40.985Z,1002.68
2016-11-16T13:25:50.938Z,1002.66
2016-11-16T13:27:01.200Z,1002.68
2016-11-16T13:28:11.170Z,1002.66
2016-11-16T13:29:21.457Z,1002.71
2016-11-16T13:30:31.738Z,1002.7
2016-11-16T13:31:41.704Z,1002.68
2016-11-16T13:32:52.006Z,1002.69
2016-11-16T13:34:01.998Z,1002.74
2016-11-16T13:35:11.657Z,1002.64
2016-11-16T13:36:21.941Z,1002.63
2016-11-16T13:37:32.248Z,1002.68
2016-11-16T13:38:42.560Z,1002.71
2016-11-16T13:39:52.222Z,1002.69
2016-11-16T13:41:02.499Z,1002.72
2016-11-16T13:42:12.481Z,1002.73
2016-11-16T13:43:22.462Z,1002.7
2016-11-16T13:44:32.455Z,1002.73
2016-11-16T13:45:42.144Z,1002.78
2016-11-16T13:46:51.806Z,1002.78
2016-11-16T13:48:02.080Z,1002.74
2016-11-16T13:49:12.065Z,1002.73
2016-11-16T13:50:22.332Z,1002.74
2016-11-16T13:51:31.994Z,1002.7
2016-11-16T13:52:41.960Z,1002.74
2016-11-16T13:53:52.231Z,1002.71
2016-11-16T13:55:01.577Z,1002.69
2016-11-16T13:56:11.556Z,1002.74
2016-11-16T13:57:21.888Z,1002.74
2016-11-16T13:58:32.163Z,1002.75
2016-11-16T13:59:42.130Z,1002.75
2016-11-16T14:00:52.111Z,1002.74
2016-11-16T14:02:02.394Z,1002.68
2016-11-16T14:03:12.681Z,1002.68
2016-11-16T14:04:22.377Z,1002.66
2016-11-16T14:05:32.660Z,1002.7
2016-11-16T14:06:42.966Z,1002.6
2016-11-16T14:07:52.928Z,1002.63
2016-11-16T14:09:02.888Z,1002.69
2016-11-16T14:10:13.175Z,1002.68
2016-11-16T14:11:23.145Z,1002.63
2016-11-16T14:12:33.118Z,1002.69
2016-11-16T14:13:43.395Z,1002.67
2016-11-16T14:14:53.052Z,1002.68
2016-11-16T14:16:03.023Z,1002.63
2016-11-16T14:17:12.994Z,1002.58
2016-11-16T14:18:22.971Z,1002.58
2016-11-16T14:19:32.943Z,1002.61
2016-11-16T14:20:42.605Z,1002.58
2016-11-16T14:21:52.577Z,1002.57
2016-11-16T14:23:02.843Z,1002.61
2016-11-16T14:24:12.509Z,1002.56
2016-11-16T14:25:22.475Z,1002.54
2016-11-16T14:26:33.227Z,1002.54
2016-11-16T14:27:43.585Z,1002.59
2016-11-16T14:28:53.576Z,1002.56
2016-11-16T14:30:03.554Z,1002.59
2016-11-16T14:31:13.529Z,1002.53
2016-11-16T14:32:23.813Z,1002.6
2016-11-16T14:33:33.789Z,1002.63
2016-11-16T14:34:43.755Z,1002.64
2016-11-16T14:35:53.745Z,1002.61
2016-11-16T14:37:04.038Z,1002.54
2016-11-16T14:38:14.005Z,1002.48
2016-11-16T14:39:23.971Z,1002.51
2016-11-16T14:40:33.934Z,1002.47
2016-11-16T14:41:44.214Z,1002.5